Terminal Aerodrome Forecast
Issued by NWS Rapid City, SD

Home | Current Version | Previous Version | Graphics & Text | Print | Product List | Glossary On
Versions: 1 2 3 4 5 6 7 8 9 10 11 12 13
000
FTUS43 KUNR 021722
TAFRAP
TAF
KRAP 021722Z 0218/0318 23014G24KT P6SM FEW070
     FM022000 33015G25KT P6SM SCT100
     FM030100 33007KT P6SM SCT120=

USA.gov is the U.S. government's official web portal to all federal, state and local government web resources and services.